Time;durP1;ratioP1;P1;durP2;ratioP2;P2;SDS_P1;SDS_P2;PMS_P1;PMS_P2;Temp;Humidity;BMP_temperature;BMP_pressure;BME280_temperature;BME280_humidity;BME280_pressure;Samples;Min_cycle;Max_cycle;Signal;HPM_P1;HPM_P2
2022/11/26 00:01:42;;;;;;;3.30;2.10;;;;;;;-141.59;100.00;61776.25;5067053;28;20239;-81
2022/11/26 00:04:09;;;;;;;3.00;1.93;;;;;;;-141.59;100.00;61776.25;5053187;28;20207;-79
2022/11/26 00:06:38;;;;;;;3.93;2.33;;;;;;;-141.59;100.00;61776.25;5051306;28;20213;-78
2022/11/26 00:09:12;;;;;;;3.47;2.30;;;;;;;-141.59;100.00;61776.25;5052478;28;20285;-79
2022/11/26 00:11:40;;;;;;;3.23;2.20;;;;;;;-141.59;100.00;61776.25;5044696;28;20225;-78
2022/11/26 00:14:14;;;;;;;5.37;2.00;;;;;;;-141.59;100.00;61776.25;5047914;28;20224;-79
2022/11/26 00:16:41;;;;;;;3.23;2.20;;;;;;;-141.59;100.00;61776.25;5047846;28;20239;-79
2022/11/26 00:19:09;;;;;;;4.77;1.90;;;;;;;-141.59;100.00;61776.25;5050094;28;20205;-79
2022/11/26 00:21:39;;;;;;;4.43;2.20;;;;;;;-141.59;100.00;61776.25;5036955;28;20236;-79
2022/11/26 00:24:21;;;;;;;2.73;1.40;;;;;;;-141.59;100.00;61776.25;5050839;28;20258;-79
2022/11/26 00:26:48;;;;;;;1.67;1.13;;;;;;;-141.59;100.00;61776.25;5031900;28;20206;-79
2022/11/26 00:29:17;;;;;;;4.73;1.47;;;;;;;-141.59;100.00;61776.25;5052649;28;20254;-78
2022/11/26 00:31:44;;;;;;;2.70;1.30;;;;;;;-141.59;100.00;61776.25;5058741;28;20255;-78
2022/11/26 00:34:11;;;;;;;1.30;0.90;;;;;;;-141.59;100.00;61776.25;5068498;28;20209;-78
2022/11/26 00:36:39;;;;;;;1.53;1.10;;;;;;;-141.59;100.00;61776.25;5047608;28;20205;-78
2022/11/26 00:39:12;;;;;;;1.37;1.17;;;;;;;-141.59;100.00;61776.25;5048230;28;20227;-78
2022/11/26 00:41:40;;;;;;;2.80;1.40;;;;;;;-141.59;100.00;61776.25;5044035;28;20222;-78
2022/11/26 00:44:18;;;;;;;1.60;1.10;;;;;;;-141.59;100.00;61776.25;5040249;28;20216;-78
2022/11/26 00:46:45;;;;;;;3.10;1.40;;;;;;;-141.59;100.00;61776.25;5058531;28;20210;-78
2022/11/26 00:49:12;;;;;;;1.60;1.10;;;;;;;-141.59;100.00;61776.25;5049258;28;20193;-79
2022/11/26 00:51:40;;;;;;;2.30;1.10;;;;;;;-141.59;100.00;61776.25;5051191;28;20205;-79
2022/11/26 00:54:12;;;;;;;2.43;0.90;;;;;;;-141.59;100.00;61776.25;5066515;28;20256;-79
2022/11/26 00:56:40;;;;;;;1.17;0.83;;;;;;;-141.59;100.00;61776.25;5056403;28;20240;-79
2022/11/26 00:59:12;;;;;;;3.57;1.10;;;;;;;-141.59;100.00;61776.25;5056623;28;20198;-79
2022/11/26 01:01:41;;;;;;;2.67;1.20;;;;;;;-141.59;100.00;61776.25;5048861;28;20246;-79
2022/11/26 01:04:09;;;;;;;2.13;1.10;;;;;;;-141.59;100.00;61776.25;5042704;28;20198;-79
2022/11/26 01:06:39;;;;;;;1.73;1.00;;;;;;;-141.59;100.00;61776.25;5048390;28;20198;-79
2022/11/26 01:09:07;;;;;;;1.10;1.00;;;;;;;-141.59;100.00;61776.25;5054211;28;20229;-79
2022/11/26 01:11:34;;;;;;;0.90;0.90;;;;;;;-141.59;100.00;61776.25;5064254;28;20217;-79
2022/11/26 01:14:01;;;;;;;4.43;1.00;;;;;;;-141.59;100.00;61776.25;5038797;28;20252;-79
2022/11/26 01:16:30;;;;;;;1.30;1.00;;;;;;;-141.59;100.00;61776.25;5035148;28;20208;-79
2022/11/26 01:19:01;;;;;;;1.00;0.80;;;;;;;-141.59;100.00;61776.25;5051947;28;20221;-79
2022/11/26 01:21:32;;;;;;;2.90;0.90;;;;;;;-141.59;100.00;61776.25;5033743;28;20222;-78
2022/11/26 01:23:59;;;;;;;1.40;1.03;;;;;;;-141.59;100.00;61776.25;5044277;28;20213;-79
2022/11/26 01:26:28;;;;;;;1.40;0.90;;;;;;;-141.59;100.00;61776.25;5047973;28;20200;-79
2022/11/26 01:28:56;;;;;;;1.27;1.03;;;;;;;-141.59;100.00;61776.25;5049958;28;20234;-79
2022/11/26 01:31:24;;;;;;;1.70;1.00;;;;;;;-141.59;100.00;61776.25;5036599;28;20197;-79
2022/11/26 01:33:52;;;;;;;1.30;0.87;;;;;;;-141.59;100.00;61776.25;5041806;28;20202;-79
2022/11/26 01:36:26;;;;;;;1.60;1.10;;;;;;;-141.59;100.00;61776.25;5046048;28;20216;-79
2022/11/26 01:38:54;;;;;;;1.90;1.10;;;;;;;-141.59;100.00;61776.25;5044197;28;20303;-79
2022/11/26 01:41:35;;;;;;;2.43;1.30;;;;;;;-141.59;100.00;61776.25;5047938;28;20313;-79
2022/11/26 01:44:07;;;;;;;1.07;0.87;;;;;;;-141.59;100.00;61776.25;5051833;28;20216;-79
2022/11/26 01:46:36;;;;;;;2.27;1.20;;;;;;;-141.59;100.00;61776.25;5051524;28;20197;-78
2022/11/26 01:49:19;;;;;;;2.37;1.40;;;;;;;-141.59;100.00;61776.25;5042161;28;20209;-79
2022/11/26 01:51:51;;;;;;;1.83;1.10;;;;;;;-141.59;100.00;61776.25;5043420;28;20313;-79
2022/11/26 01:54:18;;;;;;;2.77;1.27;;;;;;;-141.59;100.00;61776.25;5071754;28;20266;-79
2022/11/26 01:56:47;;;;;;;1.53;1.00;;;;;;;-141.59;100.00;61776.25;5065971;28;20244;-79
2022/11/26 01:59:20;;;;;;;1.53;1.10;;;;;;;-141.59;100.00;61776.25;5052744;28;20217;-79
2022/11/26 02:01:51;;;;;;;4.10;1.40;;;;;;;-141.59;100.00;61776.25;5059512;28;20225;-79
2022/11/26 02:04:21;;;;;;;3.40;1.00;;;;;;;-141.59;100.00;61776.25;5052636;28;20279;-79
2022/11/26 02:06:51;;;;;;;1.50;1.00;;;;;;;-141.59;100.00;61776.25;5053408;28;20224;-79
2022/11/26 02:09:19;;;;;;;1.33;1.03;;;;;;;-141.59;100.00;61776.25;5052622;28;20205;-79
2022/11/26 02:11:47;;;;;;;1.87;1.20;;;;;;;-141.59;100.00;61776.25;5057927;28;20244;-79
2022/11/26 02:14:18;;;;;;;1.10;1.00;;;;;;;-141.59;100.00;61776.25;5053004;28;20274;-79
2022/11/26 02:17:05;;;;;;;2.33;1.20;;;;;;;-141.59;100.00;61776.25;5052029;28;20233;-79
2022/11/26 02:20:07;;;;;;;2.87;1.20;;;;;;;-141.59;100.00;61776.25;5044326;28;20198;-79
2022/11/26 02:23:13;;;;;;;1.20;1.10;;;;;;;-141.59;100.00;61776.25;5060615;28;20218;-79
2022/11/26 02:26:05;;;;;;;1.63;1.30;;;;;;;-141.59;100.00;61776.25;5067562;28;20194;-81
2022/11/26 02:29:05;;;;;;;2.60;1.10;;;;;;;-141.59;100.00;61776.25;5068782;28;20213;-79
2022/11/26 02:31:39;;;;;;;1.20;1.10;;;;;;;-141.59;100.00;61776.25;5059897;28;20267;-79
2022/11/26 02:34:15;;;;;;;2.40;1.13;;;;;;;-141.59;100.00;61776.25;5040892;28;20205;-79
2022/11/26 02:36:49;;;;;;;2.53;1.30;;;;;;;-141.59;100.00;61776.25;5053340;28;20283;-79
2022/11/26 02:39:18;;;;;;;3.40;1.20;;;;;;;-141.59;100.00;61776.25;5052389;28;20208;-79
2022/11/26 02:41:49;;;;;;;2.07;1.20;;;;;;;-141.59;100.00;61776.25;5045503;28;20222;-79
2022/11/26 02:44:19;;;;;;;2.00;1.20;;;;;;;-141.59;100.00;61776.25;5053095;28;20209;-79
2022/11/26 02:46:51;;;;;;;4.90;1.17;;;;;;;-141.59;100.00;61776.25;5040544;28;20227;-79
2022/11/26 02:49:20;;;;;;;3.23;1.17;;;;;;;-141.59;100.00;61776.25;5049763;28;20221;-79
2022/11/26 02:51:50;;;;;;;2.03;1.30;;;;;;;-141.59;100.00;61776.25;5063719;28;20288;-79
2022/11/26 02:54:20;;;;;;;2.43;1.00;;;;;;;-141.59;100.00;61776.25;5066624;28;20193;-79
2022/11/26 02:56:48;;;;;;;2.07;0.80;;;;;;;-141.59;100.00;61776.25;5054804;28;20244;-79
2022/11/26 02:59:16;;;;;;;3.80;1.20;;;;;;;-141.59;100.00;61776.25;5049063;28;20205;-79
2022/11/26 03:01:51;;;;;;;5.23;1.67;;;;;;;-141.59;100.00;61776.25;5050377;28;20233;-79
2022/11/26 03:04:24;;;;;;;1.20;0.97;;;;;;;-141.59;100.00;61776.25;5050260;28;20205;-79
2022/11/26 03:06:56;;;;;;;2.83;1.20;;;;;;;-141.59;100.00;61776.25;5039859;28;20217;-79
2022/11/26 03:09:23;;;;;;;1.20;1.00;;;;;;;-141.59;100.00;61776.25;5061108;28;20210;-79
2022/11/26 03:11:50;;;;;;;2.90;1.20;;;;;;;-141.59;100.00;61776.25;5066638;28;20220;-79
2022/11/26 03:14:18;;;;;;;1.17;1.07;;;;;;;-141.59;100.00;61776.25;5051770;28;20210;-79
2022/11/26 03:16:45;;;;;;;2.33;1.30;;;;;;;-141.59;100.00;61776.25;5051767;28;20210;-79
2022/11/26 03:19:13;;;;;;;3.13;1.30;;;;;;;-141.59;100.00;61776.25;5057475;28;20197;-79
2022/11/26 03:21:40;;;;;;;1.77;1.20;;;;;;;-141.59;100.00;61776.25;5053790;28;20218;-79
2022/11/26 03:24:07;;;;;;;4.13;1.13;;;;;;;-141.59;100.00;61776.25;5060084;28;20202;-79
2022/11/26 03:26:34;;;;;;;2.73;1.23;;;;;;;-141.59;100.00;61776.25;5048014;28;20217;-79
2022/11/26 03:29:01;;;;;;;1.57;1.10;;;;;;;-141.59;100.00;61776.25;5047079;28;20206;-79
2022/11/26 03:31:28;;;;;;;3.13;1.17;;;;;;;-141.59;100.00;61776.25;5050329;28;20200;-79
2022/11/26 03:33:55;;;;;;;1.57;1.20;;;;;;;-141.59;100.00;61776.25;5052390;28;20202;-79
2022/11/26 03:36:24;;;;;;;2.53;1.30;;;;;;;-141.59;100.00;61776.25;5040156;28;20224;-79
2022/11/26 03:38:51;;;;;;;1.80;1.10;;;;;;;-141.59;100.00;61776.25;5056842;28;20213;-79
2022/11/26 03:41:18;;;;;;;2.70;1.30;;;;;;;-141.59;100.00;61776.25;5050810;28;20198;-79
2022/11/26 03:43:45;;;;;;;4.43;1.50;;;;;;;-141.59;100.00;61776.25;5051133;28;20209;-79
2022/11/26 03:46:12;;;;;;;3.77;1.30;;;;;;;-141.59;100.00;61776.25;5053493;28;20204;-79
2022/11/26 03:48:39;;;;;;;3.53;1.47;;;;;;;-141.59;100.00;61776.25;5051044;28;20214;-79
2022/11/26 03:51:06;;;;;;;2.10;1.40;;;;;;;-141.59;100.00;61776.25;5045863;28;20198;-79
2022/11/26 03:53:35;;;;;;;1.53;1.43;;;;;;;-141.59;100.00;61776.25;5050660;28;20212;-79
2022/11/26 03:56:02;;;;;;;2.27;1.50;;;;;;;-141.59;100.00;61776.25;5044851;28;20248;-79
2022/11/26 03:58:29;;;;;;;1.50;1.33;;;;;;;-141.59;100.00;61776.25;5068499;28;20207;-79
2022/11/26 04:00:56;;;;;;;2.00;1.10;;;;;;;-141.59;100.00;61776.25;5050293;28;20212;-79
2022/11/26 04:03:23;;;;;;;2.67;1.50;;;;;;;-141.59;100.00;61776.25;5066285;28;20217;-79
2022/11/26 04:05:50;;;;;;;3.60;1.47;;;;;;;-141.59;100.00;61776.25;5045845;28;20241;-79
2022/11/26 04:08:17;;;;;;;2.20;1.20;;;;;;;-141.59;100.00;61776.25;5051216;28;20209;-79
2022/11/26 04:10:46;;;;;;;2.17;1.30;;;;;;;-141.59;100.00;61776.25;5043768;28;20231;-79
2022/11/26 04:13:13;;;;;;;2.40;1.37;;;;;;;-141.59;100.00;61776.25;5044753;28;20194;-79
2022/11/26 04:15:41;;;;;;;3.90;1.30;;;;;;;-141.59;100.00;61776.25;5043163;28;20220;-79
2022/11/26 04:18:08;;;;;;;3.00;1.30;;;;;;;-141.59;100.00;61776.25;5048038;28;20240;-79
2022/11/26 04:20:35;;;;;;;1.40;1.30;;;;;;;-141.59;100.00;61776.25;5052645;28;20202;-79
2022/11/26 04:23:03;;;;;;;2.67;1.60;;;;;;;-141.59;100.00;61776.25;5052519;28;20268;-79
2022/11/26 04:25:30;;;;;;;3.83;1.60;;;;;;;-141.59;100.00;61776.25;5044617;28;20225;-79
2022/11/26 04:27:59;;;;;;;2.07;1.40;;;;;;;-141.59;100.00;61776.25;5052175;28;20208;-79
2022/11/26 04:30:26;;;;;;;1.90;1.43;;;;;;;-141.59;100.00;61776.25;5044411;28;20240;-79
2022/11/26 04:32:53;;;;;;;1.77;1.63;;;;;;;-141.59;100.00;61776.25;5061057;28;20228;-79
2022/11/26 04:35:20;;;;;;;2.90;1.40;;;;;;;-141.59;100.00;61776.25;5039469;28;20437;-79
2022/11/26 04:37:47;;;;;;;2.53;1.30;;;;;;;-141.59;100.00;61776.25;5037625;28;20206;-79
2022/11/26 04:40:14;;;;;;;2.37;1.10;;;;;;;-141.59;100.00;61776.25;5055626;28;20201;-79
2022/11/26 04:42:41;;;;;;;3.83;1.50;;;;;;;-141.59;100.00;61776.25;5044068;28;20221;-79
2022/11/26 04:45:11;;;;;;;2.73;1.50;;;;;;;-141.59;100.00;61776.25;5062228;28;20202;-79
2022/11/26 04:47:38;;;;;;;2.50;1.60;;;;;;;-141.59;100.00;61776.25;5056532;28;20197;-79
2022/11/26 04:50:07;;;;;;;2.87;1.60;;;;;;;-141.59;100.00;61776.25;5049491;28;20212;-79
2022/11/26 04:52:34;;;;;;;2.50;1.30;;;;;;;-141.59;100.00;61776.25;5047063;28;20193;-79
2022/11/26 04:55:01;;;;;;;2.47;1.30;;;;;;;-141.59;100.00;61776.25;5045498;28;20228;-79
2022/11/26 04:57:28;;;;;;;2.97;1.40;;;;;;;-141.59;100.00;61776.25;5048666;28;20202;-79
2022/11/26 04:59:55;;;;;;;3.63;1.30;;;;;;;-141.59;100.00;61776.25;5048123;28;20206;-79
2022/11/26 05:02:23;;;;;;;2.50;1.33;;;;;;;-141.59;100.00;61776.25;5049128;28;20274;-79
2022/11/26 05:04:50;;;;;;;3.07;1.10;;;;;;;-141.59;100.00;61776.25;5041662;28;20204;-79
2022/11/26 05:07:17;;;;;;;3.03;1.23;;;;;;;-141.59;100.00;61776.25;5043380;28;20200;-79
2022/11/26 05:09:44;;;;;;;2.37;1.33;;;;;;;-141.59;100.00;61776.25;5046919;28;20220;-79
2022/11/26 05:12:12;;;;;;;5.47;1.30;;;;;;;-141.59;100.00;61776.25;5047430;28;20209;-79
2022/11/26 05:14:39;;;;;;;4.53;1.93;;;;;;;-141.59;100.00;61776.25;5049925;28;20228;-79
2022/11/26 05:17:06;;;;;;;3.50;2.00;;;;;;;-141.59;100.00;61776.25;5044140;28;20206;-79
2022/11/26 05:19:34;;;;;;;3.07;1.60;;;;;;;-141.59;100.00;61776.25;5047326;28;20204;-79
2022/11/26 05:22:02;;;;;;;3.37;1.30;;;;;;;-141.59;100.00;61776.25;5040659;28;20226;-79
2022/11/26 05:24:29;;;;;;;2.27;1.20;;;;;;;-141.59;100.00;61776.25;5042410;28;20202;-79
2022/11/26 05:26:56;;;;;;;3.00;1.20;;;;;;;-141.59;100.00;61776.25;5045331;28;20237;-79
2022/11/26 05:29:23;;;;;;;2.73;1.10;;;;;;;-141.59;100.00;61776.25;5064488;28;20280;-79
2022/11/26 05:31:50;;;;;;;3.63;1.20;;;;;;;-141.59;100.00;61776.25;5050909;28;20197;-79
2022/11/26 05:34:18;;;;;;;1.97;1.30;;;;;;;-141.59;100.00;61776.25;5044325;28;20205;-79
2022/11/26 05:36:46;;;;;;;2.57;1.40;;;;;;;-141.59;100.00;61776.25;5043832;28;20206;-79
2022/11/26 05:39:13;;;;;;;3.23;1.40;;;;;;;-141.59;100.00;61776.25;5039647;28;20216;-79
2022/11/26 05:41:40;;;;;;;2.33;1.20;;;;;;;-141.59;100.00;61776.25;5046200;28;20241;-79
2022/11/26 05:44:07;;;;;;;1.53;1.17;;;;;;;-141.59;100.00;61776.25;5055530;28;20217;-79
2022/11/26 05:46:35;;;;;;;2.47;1.80;;;;;;;-141.59;100.00;61776.25;5051707;28;20229;-79
2022/11/26 05:49:02;;;;;;;1.93;1.47;;;;;;;-141.59;100.00;61776.25;5053242;28;20205;-79
2022/11/26 05:51:29;;;;;;;2.40;1.40;;;;;;;-141.59;100.00;61776.25;5058802;28;20212;-79
2022/11/26 05:53:58;;;;;;;2.90;1.30;;;;;;;-141.59;100.00;61776.25;5052070;28;20194;-79
2022/11/26 05:56:25;;;;;;;1.80;1.37;;;;;;;-141.59;100.00;61776.25;5035023;28;20233;-79
2022/11/26 05:58:52;;;;;;;4.80;2.03;;;;;;;-141.59;100.00;61776.25;5069240;28;20222;-79
2022/11/26 06:01:19;;;;;;;2.33;1.27;;;;;;;-141.59;100.00;61776.25;5052702;28;20256;-79
2022/11/26 06:03:46;;;;;;;6.97;1.50;;;;;;;-141.59;100.00;61776.25;5038745;28;20246;-80
2022/11/26 06:06:13;;;;;;;5.77;3.17;;;;;;;-141.59;100.00;61776.25;5040919;28;20206;-80
2022/11/26 06:08:40;;;;;;;6.40;1.40;;;;;;;-141.59;100.00;61776.25;5047938;28;20197;-79
2022/11/26 06:11:11;;;;;;;1.30;1.10;;;;;;;-141.59;100.00;61776.25;5049414;28;20313;-79
2022/11/26 06:13:38;;;;;;;3.70;1.00;;;;;;;-141.59;100.00;61776.25;5042387;28;20244;-79
2022/11/26 06:16:09;;;;;;;3.37;1.10;;;;;;;-141.59;100.00;61776.25;5060757;28;20216;-79
2022/11/26 06:18:37;;;;;;;1.93;1.10;;;;;;;-141.59;100.00;61776.25;5051642;28;20202;-79
2022/11/26 06:21:05;;;;;;;1.80;1.00;;;;;;;-141.59;100.00;61776.25;5045011;28;20194;-79
2022/11/26 06:23:33;;;;;;;1.33;0.90;;;;;;;-141.59;100.00;61776.25;5044607;28;20276;-79
2022/11/26 06:26:00;;;;;;;1.53;1.10;;;;;;;-141.59;100.00;61776.25;5053303;28;20200;-79
2022/11/26 06:28:29;;;;;;;1.97;1.00;;;;;;;-141.59;100.00;61776.25;5040443;28;20202;-79
2022/11/26 06:30:56;;;;;;;3.23;1.23;;;;;;;-141.59;100.00;61776.25;5050391;28;20209;-79
2022/11/26 06:33:23;;;;;;;3.23;1.57;;;;;;;-141.59;100.00;61776.25;5054640;28;20209;-81
2022/11/26 06:35:50;;;;;;;5.27;1.40;;;;;;;-141.59;100.00;61776.25;5054130;28;20206;-79
2022/11/26 06:38:17;;;;;;;2.57;1.40;;;;;;;-141.59;100.00;61776.25;5053000;28;20221;-79
2022/11/26 06:40:44;;;;;;;1.63;1.50;;;;;;;-141.59;100.00;61776.25;5071411;28;20194;-80
2022/11/26 06:43:11;;;;;;;5.23;1.30;;;;;;;-141.59;100.00;61776.25;5053718;28;20228;-79
2022/11/26 06:45:39;;;;;;;4.93;1.50;;;;;;;-141.59;100.00;61776.25;5051521;28;20255;-79
2022/11/26 06:48:07;;;;;;;2.37;1.37;;;;;;;-141.59;100.00;61776.25;5048387;28;20206;-79
2022/11/26 06:50:34;;;;;;;2.87;1.50;;;;;;;-141.59;100.00;61776.25;5044515;28;20206;-79
2022/11/26 06:53:01;;;;;;;3.87;1.60;;;;;;;-141.59;100.00;61776.25;5068423;28;20215;-79
2022/11/26 06:55:29;;;;;;;3.73;1.80;;;;;;;-141.59;100.00;61776.25;5071319;28;20236;-82
2022/11/26 06:57:56;;;;;;;4.10;1.37;;;;;;;-141.59;100.00;61776.25;5048005;28;20271;-79
2022/11/26 07:00:23;;;;;;;3.47;1.50;;;;;;;-141.59;100.00;61776.25;5052550;28;20205;-79
2022/11/26 07:02:52;;;;;;;8.00;1.70;;;;;;;-141.59;100.00;61776.25;5070242;28;20218;-79
2022/11/26 07:05:19;;;;;;;1.60;1.20;;;;;;;-141.59;100.00;61776.25;5065158;28;20263;-79
2022/11/26 07:07:46;;;;;;;4.67;1.60;;;;;;;-141.59;100.00;61776.25;5051336;28;20206;-79
2022/11/26 07:10:14;;;;;;;4.00;1.53;;;;;;;-141.59;100.00;61776.25;5054902;28;20236;-79
2022/11/26 07:12:41;;;;;;;4.27;1.63;;;;;;;-141.59;100.00;61776.25;5044825;28;20209;-79
2022/11/26 07:15:09;;;;;;;4.23;1.47;;;;;;;-141.59;100.00;61776.25;5051339;28;20201;-81
2022/11/26 07:17:37;;;;;;;2.77;1.37;;;;;;;-141.59;100.00;61776.25;5047474;28;20202;-79
2022/11/26 07:20:07;;;;;;;3.27;1.90;;;;;;;-141.59;100.00;61776.25;5047228;28;20185;-81
2022/11/26 07:22:34;;;;;;;3.17;1.80;;;;;;;-141.59;100.00;61776.25;5053065;28;20233;-81
2022/11/26 07:25:01;;;;;;;7.07;2.30;;;;;;;-141.59;100.00;61776.25;5053994;28;20211;-81
2022/11/26 07:27:28;;;;;;;4.87;1.90;;;;;;;-141.59;100.00;61776.25;5050053;28;20283;-81
2022/11/26 07:29:55;;;;;;;10.90;5.90;;;;;;;-141.59;100.00;61776.25;5051509;28;20211;-79
2022/11/26 07:32:22;;;;;;;7.70;3.03;;;;;;;-141.59;100.00;61776.25;5052800;28;20205;-82
2022/11/26 07:34:49;;;;;;;4.77;2.23;;;;;;;-141.59;100.00;61776.25;5042490;28;20198;-81
2022/11/26 07:37:18;;;;;;;6.00;2.27;;;;;;;-141.59;100.00;61776.25;5060636;28;20217;-81
2022/11/26 07:39:45;;;;;;;4.00;1.97;;;;;;;-141.59;100.00;61776.25;5068695;28;20208;-81
2022/11/26 07:42:12;;;;;;;5.03;2.90;;;;;;;-141.59;100.00;61776.25;5067185;28;20202;-81
2022/11/26 07:44:39;;;;;;;3.27;2.40;;;;;;;-141.59;100.00;61776.25;5074809;28;20210;-79
2022/11/26 07:47:07;;;;;;;3.33;1.53;;;;;;;-141.59;100.00;61776.25;5035612;28;20194;-79
2022/11/26 07:49:34;;;;;;;2.73;1.90;;;;;;;-141.59;100.00;61776.25;5065393;28;20201;-79
2022/11/26 07:52:01;;;;;;;1.93;1.70;;;;;;;-141.59;100.00;61776.25;5040713;28;20206;-79
2022/11/26 07:54:29;;;;;;;2.33;1.60;;;;;;;-141.59;100.00;61776.25;5052603;28;20193;-79
2022/11/26 07:56:56;;;;;;;5.77;2.10;;;;;;;-141.59;100.00;61776.25;5047630;28;20234;-79
2022/11/26 07:59:23;;;;;;;3.40;1.93;;;;;;;-141.59;100.00;61776.25;5042404;28;20216;-81
2022/11/26 08:01:51;;;;;;;4.93;2.10;;;;;;;-141.59;100.00;61776.25;5045442;28;20221;-79
2022/11/26 08:04:18;;;;;;;6.80;1.87;;;;;;;-141.59;100.00;61776.25;5061217;28;20225;-79
2022/11/26 08:06:45;;;;;;;4.80;2.40;;;;;;;-141.59;100.00;61776.25;5059910;28;20281;-79
2022/11/26 08:09:13;;;;;;;2.90;2.07;;;;;;;-141.59;100.00;61776.25;5041698;28;20198;-80
2022/11/26 08:11:42;;;;;;;3.33;2.27;;;;;;;-141.59;100.00;61776.25;5043036;28;20279;-80
2022/11/26 08:14:11;;;;;;;3.97;2.10;;;;;;;-141.59;100.00;61776.25;5041938;28;20212;-79
2022/11/26 08:16:39;;;;;;;3.20;1.73;;;;;;;-141.59;100.00;61776.25;5064885;28;20228;-80
2022/11/26 08:19:08;;;;;;;3.43;1.80;;;;;;;-141.59;100.00;61776.25;5053083;28;20198;-79
2022/11/26 08:21:35;;;;;;;2.77;2.07;;;;;;;-141.59;100.00;61776.25;5045880;28;20220;-80
2022/11/26 08:24:03;;;;;;;2.53;1.60;;;;;;;-141.59;100.00;61776.25;5047782;28;20264;-80
2022/11/26 08:26:31;;;;;;;6.33;2.20;;;;;;;-141.59;100.00;61776.25;5044877;28;20198;-79
2022/11/26 08:29:00;;;;;;;4.90;1.70;;;;;;;-141.59;100.00;61776.25;5046255;28;20212;-79
2022/11/26 08:31:27;;;;;;;4.60;2.07;;;;;;;-141.59;100.00;61776.25;5041271;28;20230;-79
2022/11/26 08:33:57;;;;;;;3.53;2.43;;;;;;;-141.59;100.00;61776.25;5054197;28;20210;-79
2022/11/26 08:36:25;;;;;;;5.67;2.53;;;;;;;-141.59;100.00;61776.25;5054478;28;20202;-80
2022/11/26 08:38:52;;;;;;;4.07;1.80;;;;;;;-141.59;100.00;61776.25;5041976;28;20202;-80
2022/11/26 08:41:20;;;;;;;4.40;1.67;;;;;;;-141.59;100.00;61776.25;5062463;28;20198;-80
2022/11/26 08:43:47;;;;;;;5.83;2.10;;;;;;;-141.59;100.00;61776.25;5044147;28;20331;-79
2022/11/26 08:46:15;;;;;;;6.57;3.33;;;;;;;-141.59;100.00;61776.25;5045401;28;20297;-79
2022/11/26 08:48:44;;;;;;;5.47;3.20;;;;;;;-141.59;100.00;61776.25;5062892;28;20201;-79
2022/11/26 08:51:12;;;;;;;4.07;2.93;;;;;;;-141.59;100.00;61776.25;5044100;28;20205;-79
2022/11/26 08:53:39;;;;;;;4.57;1.93;;;;;;;-141.59;100.00;61776.25;5035481;28;20200;-79
2022/11/26 08:56:09;;;;;;;2.77;1.20;;;;;;;-141.59;100.00;61776.25;5033980;28;20233;-79
2022/11/26 08:58:39;;;;;;;2.20;1.63;;;;;;;-141.59;100.00;61776.25;5037112;28;20206;-79
2022/11/26 09:01:08;;;;;;;5.43;3.00;;;;;;;-141.59;100.00;61776.25;5036083;28;20194;-79
2022/11/26 09:03:37;;;;;;;3.83;1.63;;;;;;;-141.59;100.00;61776.25;5046608;28;20214;-80
2022/11/26 09:06:05;;;;;;;9.43;2.33;;;;;;;-141.59;100.00;61776.25;5038916;28;20432;-79
2022/11/26 09:08:43;;;;;;;5.73;2.20;;;;;;;-141.59;100.00;61776.25;5035961;28;20190;-79
2022/11/26 09:11:11;;;;;;;2.80;1.60;;;;;;;-141.59;100.00;61776.25;5036753;28;20233;-79
2022/11/26 09:13:38;;;;;;;4.30;2.00;;;;;;;-141.59;100.00;61776.25;5031855;28;20203;-79
2022/11/26 09:16:08;;;;;;;6.47;1.93;;;;;;;-141.59;100.00;61776.25;5040768;28;20215;-80
2022/11/26 09:18:36;;;;;;;2.93;1.50;;;;;;;-141.59;100.00;61776.25;5039756;28;20234;-80
2022/11/26 09:21:04;;;;;;;5.73;1.40;;;;;;;-141.59;100.00;61776.25;5040237;28;20290;-80
2022/11/26 09:23:32;;;;;;;2.63;1.40;;;;;;;-141.59;100.00;61776.25;5037338;28;20218;-80
2022/11/26 09:25:59;;;;;;;6.20;3.17;;;;;;;-141.59;100.00;61776.25;5037223;28;20194;-79
2022/11/26 09:28:28;;;;;;;11.47;3.50;;;;;;;-141.59;100.00;61776.25;5037899;28;20202;-79
2022/11/26 09:30:57;;;;;;;4.20;2.50;;;;;;;-141.59;100.00;61776.25;5035075;28;20213;-79
2022/11/26 09:33:25;;;;;;;5.03;2.10;;;;;;;-141.59;100.00;61776.25;5028062;28;20294;-79
2022/11/26 09:35:53;;;;;;;5.20;1.87;;;;;;;-141.59;100.00;61776.25;5039938;28;20206;-80
2022/11/26 09:38:21;;;;;;;3.00;1.83;;;;;;;-141.59;100.00;61776.25;5038413;28;20205;-83
2022/11/26 09:40:58;;;;;;;5.20;2.20;;;;;;;-141.59;100.00;61776.25;5037011;28;20209;-85
2022/11/26 09:43:31;;;;;;;3.20;2.20;;;;;;;-141.59;100.00;61776.25;5033259;28;20254;-83
2022/11/26 09:46:00;;;;;;;4.67;2.37;;;;;;;-141.59;100.00;61776.25;5040998;28;20222;-82
2022/11/26 09:48:31;;;;;;;3.03;1.70;;;;;;;-141.59;100.00;61776.25;5033593;28;20285;-83
2022/11/26 09:51:09;;;;;;;4.90;2.03;;;;;;;-141.59;100.00;61776.25;5040806;28;20218;-84
2022/11/26 09:53:41;;;;;;;3.90;2.90;;;;;;;-141.59;100.00;61776.25;5035632;28;20198;-83
2022/11/26 09:56:14;;;;;;;5.73;3.00;;;;;;;-141.59;100.00;61776.25;5043478;28;20244;-83
2022/11/26 09:58:49;;;;;;;3.17;2.30;;;;;;;-141.59;100.00;61776.25;5044254;28;20202;-83
2022/11/26 10:01:19;;;;;;;5.07;2.23;;;;;;;-141.59;100.00;61776.25;5046400;28;20221;-84
2022/11/26 10:03:47;;;;;;;4.40;1.83;;;;;;;-141.59;100.00;61776.25;5060760;28;20317;-82
2022/11/26 10:06:31;;;;;;;4.13;1.80;;;;;;;-141.59;100.00;61776.25;5045005;28;20321;-84
2022/11/26 10:09:40;;;;;;;4.17;2.00;;;;;;;-141.59;100.00;61776.25;5038241;28;20251;-84
2022/11/26 10:12:26;;;;;;;2.10;1.90;;;;;;;-141.59;100.00;61776.25;5037451;28;20237;-86
2022/11/26 10:15:03;;;;;;;5.00;1.87;;;;;;;-141.59;100.00;61776.25;5048129;28;20217;-83
2022/11/26 10:17:39;;;;;;;2.50;1.40;;;;;;;-141.59;100.00;61776.25;5037430;28;20203;-82
2022/11/26 10:20:44;;;;;;;2.13;1.67;;;;;;;-141.59;100.00;61776.25;5038605;28;20211;-82
2022/11/26 10:23:21;;;;;;;3.20;1.70;;;;;;;-141.59;100.00;61776.25;5007849;28;20206;-82
2022/11/26 10:25:51;;;;;;;3.17;1.73;;;;;;;-141.59;100.00;61776.25;5034516;28;20210;-82
2022/11/26 10:28:22;;;;;;;3.30;1.73;;;;;;;-141.59;100.00;61776.25;5041135;28;20194;-84
2022/11/26 10:30:58;;;;;;;3.63;2.13;;;;;;;-141.59;100.00;61776.25;5044498;28;20274;-84
2022/11/26 10:33:31;;;;;;;2.17;1.63;;;;;;;-141.59;100.00;61776.25;5037492;28;20205;-83
2022/11/26 10:35:58;;;;;;;4.87;1.97;;;;;;;-141.59;100.00;61776.25;5045597;28;20250;-83
2022/11/26 10:38:27;;;;;;;3.03;1.80;;;;;;;-141.59;100.00;61776.25;5040847;28;20212;-83
2022/11/26 10:40:54;;;;;;;2.37;1.60;;;;;;;-141.59;100.00;61776.25;5029842;28;20210;-83
2022/11/26 10:43:23;;;;;;;3.70;1.63;;;;;;;-141.59;100.00;61776.25;5033194;28;20202;-81
2022/11/26 10:45:52;;;;;;;3.37;1.73;;;;;;;-141.59;100.00;61776.25;5046416;28;20329;-83
2022/11/26 10:48:28;;;;;;;2.57;1.77;;;;;;;-141.59;100.00;61776.25;5044723;28;20202;-83
2022/11/26 10:51:01;;;;;;;1.80;1.30;;;;;;;-141.59;100.00;61776.25;5037116;28;20198;-86
2022/11/26 10:53:34;;;;;;;3.57;1.80;;;;;;;-141.59;100.00;61776.25;5050609;28;20276;-84
2022/11/26 10:56:06;;;;;;;4.23;1.50;;;;;;;-141.59;100.00;61776.25;5042768;28;20221;-86
2022/11/26 10:58:40;;;;;;;4.73;1.90;;;;;;;-141.59;100.00;61776.25;5046115;28;20257;-85
2022/11/26 11:01:08;;;;;;;5.87;2.47;;;;;;;-141.59;100.00;61776.25;5046137;28;20199;-83
2022/11/26 11:03:46;;;;;;;4.07;1.97;;;;;;;-141.59;100.00;61776.25;5044590;28;20293;-84
2022/11/26 11:06:27;;;;;;;3.73;1.83;;;;;;;-141.59;100.00;61776.25;5038101;28;20206;-82
2022/11/26 11:08:57;;;;;;;3.77;1.83;;;;;;;-141.59;100.00;61776.25;5036965;28;20214;-85
2022/11/26 11:11:27;;;;;;;3.93;2.20;;;;;;;-141.59;100.00;61776.25;5036790;28;20238;-84
2022/11/26 11:13:56;;;;;;;1.63;1.30;;;;;;;-141.59;100.00;61776.25;5037211;28;20293;-81
2022/11/26 11:16:27;;;;;;;3.23;1.63;;;;;;;-141.59;100.00;61776.25;5039936;28;20291;-83
2022/11/26 11:18:56;;;;;;;2.00;1.40;;;;;;;-141.59;100.00;61776.25;5044288;28;20222;-84
2022/11/26 11:21:28;;;;;;;2.30;1.50;;;;;;;-141.59;100.00;61776.25;5032237;28;20210;-84